Time;durP1;ratioP1;P1;durP2;ratioP2;P2;SDS_P1;SDS_P2;PMS_P1;PMS_P2;Temp;Humidity;BMP_temperature;BMP_pressure;BME280_temperature;BME280_humidity;BME280_pressure;Samples;Min_cycle;Max_cycle;Signal;HPM_P1;HPM_P2
2022/03/10 00:00:34;;;;;;;27.35;13.52;;;;;;;-1.43;100.00;95466.16;5012838;28;20033;-65
2022/03/10 00:02:59;;;;;;;31.23;13.82;;;;;;;-1.47;100.00;95473.59;5012921;28;20021;-65
2022/03/10 00:05:26;;;;;;;26.33;13.15;;;;;;;-1.51;100.00;95468.91;5012938;28;20055;-65
2022/03/10 00:07:54;;;;;;;30.05;13.30;;;;;;;-144.43;100.00;64487.81;5012457;28;20018;-65
2022/03/10 00:10:20;;;;;;;31.13;13.40;;;;;;;-144.43;100.00;64487.81;5012642;28;20025;-65
2022/03/10 00:12:52;;;;;;;31.40;13.98;;;;;;;-144.43;100.00;64487.81;5012442;28;20050;-65
2022/03/10 00:15:24;;;;;;;30.25;13.60;;;;;;;-144.43;100.00;64487.81;5011739;28;20504;-64
2022/03/10 00:17:50;;;;;;;32.03;14.27;;;;;;;-144.43;100.00;64487.81;4987065;28;20026;-64
2022/03/10 00:20:20;;;;;;;31.05;13.93;;;;;;;-144.43;100.00;64487.81;4990348;28;20088;-64
2022/03/10 00:22:52;;;;;;;29.05;13.43;;;;;;;-144.43;100.00;64487.81;5012723;28;20025;-64
2022/03/10 00:25:26;;;;;;;31.10;14.05;;;;;;;-144.43;100.00;64487.81;5003616;28;20035;-64
2022/03/10 00:27:55;;;;;;;30.63;13.85;;;;;;;-144.43;100.00;64487.81;5011528;28;20469;-64
2022/03/10 00:30:22;;;;;;;29.02;13.93;;;;;;;-144.43;100.00;64487.81;4978964;28;20054;-64
2022/03/10 00:32:56;;;;;;;26.70;13.15;;;;;;;-144.43;100.00;64487.81;5012750;28;20120;-64
2022/03/10 00:35:23;;;;;;;30.35;14.05;;;;;;;-144.43;100.00;64487.81;5011261;28;20022;-64
2022/03/10 00:37:51;;;;;;;26.17;13.05;;;;;;;-144.43;100.00;64487.81;5012487;28;20030;-64
2022/03/10 00:40:20;;;;;;;29.50;13.85;;;;;;;-144.43;100.00;64487.81;5012602;28;20093;-63
2022/03/10 00:42:48;;;;;;;29.23;14.15;;;;;;;-144.43;100.00;64487.81;5012578;28;20080;-63
2022/03/10 00:45:31;;;;;;;34.08;13.80;;;;;;;-144.43;100.00;64487.81;5012527;28;20037;-63
2022/03/10 00:48:05;;;;;;;29.48;13.98;;;;;;;-144.43;100.00;64487.81;4996132;28;20038;-63
2022/03/10 00:50:31;;;;;;;29.60;13.25;;;;;;;-144.43;100.00;64487.81;4994852;28;20044;-63
2022/03/10 00:52:56;;;;;;;30.92;13.52;;;;;;;-144.43;100.00;64487.81;4999789;28;20112;-63
2022/03/10 00:55:24;;;;;;;28.10;13.25;;;;;;;-144.43;100.00;64487.81;5012438;28;20022;-63
2022/03/10 00:57:50;;;;;;;30.98;14.07;;;;;;;-144.43;100.00;64487.81;5012427;28;20032;-63
2022/03/10 01:00:19;;;;;;;31.52;14.38;;;;;;;-144.43;100.00;64487.81;5012332;28;20037;-63
2022/03/10 01:02:47;;;;;;;34.90;14.38;;;;;;;-144.43;100.00;64487.81;4994742;28;20029;-63
2022/03/10 01:05:31;;;;;;;31.60;15.10;;;;;;;-144.43;100.00;64487.81;5012374;28;20448;-63
2022/03/10 01:07:56;;;;;;;29.92;13.13;;;;;;;-144.43;100.00;64487.81;5012469;28;20029;-63
2022/03/10 01:10:22;;;;;;;32.20;13.73;;;;;;;-144.43;100.00;64487.81;5012275;28;20493;-62
2022/03/10 01:12:48;;;;;;;31.45;14.35;;;;;;;-144.43;100.00;64487.81;5012002;28;20397;-63
2022/03/10 01:15:22;;;;;;;30.05;13.65;;;;;;;-144.43;100.00;64487.81;5012104;28;20026;-63
2022/03/10 01:17:52;;;;;;;27.60;13.73;;;;;;;-144.43;100.00;64487.81;4992387;28;20030;-63
2022/03/10 01:20:26;;;;;;;30.90;14.30;;;;;;;-144.43;100.00;64487.81;5004401;28;20037;-62
2022/03/10 01:22:51;;;;;;;;;;;;;;;-144.43;100.00;64487.81;5016294;28;20025;-62
2022/03/10 01:25:18;;;;;;;30.00;14.38;;;;;;;-144.43;100.00;64487.81;5015209;28;19959;-62
2022/03/10 01:27:49;;;;;;;31.88;14.55;;;;;;;-144.43;100.00;64487.81;5015876;28;20495;-60
2022/03/10 01:30:16;;;;;;;32.63;14.43;;;;;;;-144.43;100.00;64487.81;5015872;28;20017;-62
2022/03/10 01:32:44;;;;;;;30.48;13.70;;;;;;;-144.43;100.00;64487.81;5015797;28;20030;-61
2022/03/10 01:35:16;;;;;;;32.20;15.18;;;;;;;-144.43;100.00;64487.81;5016024;28;20032;-62
2022/03/10 01:37:41;;;;;;;30.52;14.70;;;;;;;-144.43;100.00;64487.81;5014285;28;20032;-62
2022/03/10 01:40:10;;;;;;;32.05;14.75;;;;;;;-144.43;100.00;64487.81;5015342;28;20384;-62
2022/03/10 01:42:39;;;;;;;32.58;14.68;;;;;;;-144.43;100.00;64487.81;5015402;28;20033;-62
2022/03/10 01:45:06;;;;;;;30.00;14.90;;;;;;;-144.43;100.00;64487.81;5015435;28;20388;-62
2022/03/10 01:47:40;;;;;;;31.80;14.13;;;;;;;-144.43;100.00;64487.81;4997948;28;20028;-62
2022/03/10 01:50:11;;;;;;;36.85;15.52;;;;;;;-144.43;100.00;64487.81;5015445;28;20481;-61
2022/03/10 01:52:37;;;;;;;32.38;14.85;;;;;;;-144.43;100.00;64487.81;5015358;28;20041;-60
2022/03/10 01:55:03;;;;;;;34.78;14.55;;;;;;;-144.43;100.00;64487.81;5015147;28;20105;-61
2022/03/10 01:57:32;;;;;;;31.05;14.43;;;;;;;-144.43;100.00;64487.81;4997936;28;20511;-61
2022/03/10 02:00:00;;;;;;;35.72;16.60;;;;;;;-144.43;100.00;64487.81;5015163;28;20057;-61
2022/03/10 02:02:25;;;;;;;33.85;15.45;;;;;;;-144.43;100.00;64487.81;5014957;28;20026;-60
2022/03/10 02:04:51;;;;;;;32.88;14.10;;;;;;;-144.43;100.00;64487.81;5014929;28;20032;-61
2022/03/10 02:10:18;;;;;;;30.60;15.13;;;;;;;-144.43;100.00;64487.81;5015216;28;20079;-61
2022/03/10 02:12:49;;;;;;;33.47;15.70;;;;;;;-144.43;100.00;64487.81;5014812;28;20061;-61
2022/03/10 02:18:06;;;;;;;32.45;15.23;;;;;;;-144.43;100.00;64487.81;5010179;28;20069;-60
2022/03/10 02:20:31;;;;;;;38.05;16.65;;;;;;;-144.43;100.00;64487.81;5006243;28;20030;-60
2022/03/10 02:23:00;;;;;;;29.52;14.45;;;;;;;-144.43;100.00;64487.81;5014615;28;20029;-60
2022/03/10 02:25:29;;;;;;;33.38;15.18;;;;;;;-144.43;100.00;64487.81;4996913;28;20416;-60
2022/03/10 02:27:55;;;;;;;31.73;14.38;;;;;;;-144.43;100.00;64487.81;5014682;28;20036;-59
2022/03/10 02:30:23;;;;;;;35.28;16.02;;;;;;;-144.43;100.00;64487.81;5014500;28;20049;-60
2022/03/10 02:32:49;;;;;;;34.42;15.40;;;;;;;-144.43;100.00;64487.81;5014416;28;20034;-60
2022/03/10 02:35:15;;;;;;;28.25;13.82;;;;;;;-144.43;100.00;64487.81;5014650;28;20026;-60
2022/03/10 02:37:44;;;;;;;29.60;14.63;;;;;;;-144.43;100.00;64487.81;5014557;28;20112;-59
2022/03/10 02:40:10;;;;;;;30.67;14.05;;;;;;;-144.43;100.00;64487.81;5014123;28;20030;-59
2022/03/10 02:42:35;;;;;;;32.83;14.75;;;;;;;-144.43;100.00;64487.81;5014259;28;20053;-58
2022/03/10 02:45:01;;;;;;;35.58;15.18;;;;;;;-144.43;100.00;64487.81;5014122;28;20085;-59
2022/03/10 02:47:30;;;;;;;34.22;15.27;;;;;;;-144.43;100.00;64487.81;4996943;28;20022;-59
2022/03/10 02:49:58;;;;;;;32.95;13.48;;;;;;;-144.43;100.00;64487.81;5014420;28;20076;-60
2022/03/10 02:52:24;;;;;;;29.42;14.00;;;;;;;-144.43;100.00;64487.81;4996562;28;20026;-59
2022/03/10 02:54:55;;;;;;;31.40;14.95;;;;;;;-144.43;100.00;64487.81;5014027;28;20026;-57
2022/03/10 02:57:21;;;;;;;32.45;15.77;;;;;;;-144.43;100.00;64487.81;5014054;28;20137;-59
2022/03/10 02:59:49;;;;;;;35.05;14.75;;;;;;;-144.43;100.00;64487.81;5014004;28;20484;-57
2022/03/10 03:02:24;;;;;;;31.73;14.20;;;;;;;-144.43;100.00;64487.81;5014018;28;20018;-59
2022/03/10 03:04:49;;;;;;;30.33;14.80;;;;;;;-144.43;100.00;64487.81;4996412;28;20030;-59
2022/03/10 03:07:14;;;;;;;32.28;15.40;;;;;;;-144.43;100.00;64487.81;5014004;28;20374;-58
2022/03/10 03:09:43;;;;;;;30.10;14.15;;;;;;;-144.43;100.00;64487.81;5013794;28;20040;-59
2022/03/10 03:12:08;;;;;;;33.97;13.85;;;;;;;-144.43;100.00;64487.81;5013445;28;20033;-59
2022/03/10 03:14:34;;;;;;;35.85;14.85;;;;;;;-144.43;100.00;64487.81;5013849;28;20092;-58
2022/03/10 03:17:02;;;;;;;30.67;14.60;;;;;;;-144.43;100.00;64487.81;4996181;28;20064;-59
2022/03/10 03:19:31;;;;;;;30.30;13.63;;;;;;;-144.43;100.00;64487.81;5000130;28;20033;-56
2022/03/10 03:21:56;;;;;;;29.67;14.10;;;;;;;-144.43;100.00;64487.81;5013497;28;20032;-56
2022/03/10 03:24:22;;;;;;;27.42;13.25;;;;;;;-144.43;100.00;64487.81;5012330;28;20108;-55
2022/03/10 03:26:56;;;;;;;28.77;14.35;;;;;;;-144.43;100.00;64487.81;5013684;28;20033;-55
2022/03/10 03:29:22;;;;;;;30.77;13.65;;;;;;;-144.43;100.00;64487.81;5013666;28;20022;-61
2022/03/10 03:31:59;;;;;;;34.30;14.63;;;;;;;-144.43;100.00;64487.81;5013514;28;20034;-59
2022/03/10 03:34:24;;;;;;;29.45;14.02;;;;;;;-144.43;100.00;64487.81;5013447;28;20438;-57
2022/03/10 03:36:50;;;;;;;34.35;15.07;;;;;;;-144.43;100.00;64487.81;5013274;28;20068;-57
2022/03/10 03:39:15;;;;;;;30.50;14.02;;;;;;;-144.43;100.00;64487.81;4995810;28;20053;-56
2022/03/10 03:41:47;;;;;;;28.05;13.45;;;;;;;-144.43;100.00;64487.81;5012807;28;20053;-61
2022/03/10 03:44:18;;;;;;;30.02;14.40;;;;;;;-144.43;100.00;64487.81;5012966;28;20040;-59
2022/03/10 03:46:44;;;;;;;31.17;13.85;;;;;;;-144.43;100.00;64487.81;5013295;28;20029;-59
2022/03/10 03:49:15;;;;;;;30.67;13.95;;;;;;;-144.43;100.00;64487.81;5013253;28;20025;-57
2022/03/10 03:51:41;;;;;;;28.95;13.70;;;;;;;-144.43;100.00;64487.81;5013042;28;20022;-60
2022/03/10 03:54:24;;;;;;;28.75;13.70;;;;;;;-144.43;100.00;64487.81;5013166;28;20026;-60
2022/03/10 03:56:50;;;;;;;35.88;13.95;;;;;;;-144.43;100.00;64487.81;4995882;28;20032;-60
2022/03/10 03:59:15;;;;;;;34.05;14.95;;;;;;;-144.43;100.00;64487.81;5013088;28;20034;-60
2022/03/10 04:01:47;;;;;;;33.17;14.73;;;;;;;-144.43;100.00;64487.81;5012796;28;20062;-55
2022/03/10 04:04:13;;;;;;;31.38;14.63;;;;;;;-144.43;100.00;64487.81;5012804;28;20491;-58
2022/03/10 04:06:41;;;;;;;34.22;13.52;;;;;;;-144.43;100.00;64487.81;5011513;28;20136;-57
2022/03/10 04:09:09;;;;;;;32.47;14.95;;;;;;;-144.43;100.00;64487.81;5012848;28;20065;-56
2022/03/10 04:11:34;;;;;;;34.47;15.88;;;;;;;-144.43;100.00;64487.81;5012677;28;20025;-58
2022/03/10 04:13:59;;;;;;;33.97;14.93;;;;;;;-144.43;100.00;64487.81;5012656;28;20409;-60
2022/03/10 04:16:27;;;;;;;31.80;14.65;;;;;;;-144.43;100.00;64487.81;5012731;28;20504;-60
2022/03/10 04:18:53;;;;;;;31.60;14.55;;;;;;;-144.43;100.00;64487.81;4984003;28;20033;-59
2022/03/10 04:21:33;;;;;;;32.67;14.40;;;;;;;-144.43;100.00;64487.81;5010424;28;20026;-60
2022/03/10 04:24:02;;;;;;;34.72;15.57;;;;;;;-144.43;100.00;64487.81;5010286;28;20034;-60
2022/03/10 04:26:28;;;;;;;34.42;14.40;;;;;;;-144.43;100.00;64487.81;5012647;28;20033;-57
2022/03/10 04:28:53;;;;;;;33.03;14.75;;;;;;;-144.43;100.00;64487.81;5011277;28;20028;-59
2022/03/10 04:31:25;;;;;;;34.38;14.65;;;;;;;-144.43;100.00;64487.81;5012600;28;20381;-60
2022/03/10 04:33:57;;;;;;;29.90;14.27;;;;;;;-144.43;100.00;64487.81;5012515;28;20477;-59
2022/03/10 04:36:23;;;;;;;30.15;13.93;;;;;;;-144.43;100.00;64487.81;5012680;28;20076;-60
2022/03/10 04:38:51;;;;;;;33.47;14.80;;;;;;;-144.43;100.00;64487.81;4994827;28;20029;-59
2022/03/10 04:41:20;;;;;;;32.15;14.63;;;;;;;-3.76;100.00;95623.63;5012612;28;20030;-57
2022/03/10 04:43:48;;;;;;;33.50;14.55;;;;;;;-3.84;100.00;95627.88;4994863;28;20030;-58
2022/03/10 04:46:29;;;;;;;30.50;13.68;;;;;;;-3.91;100.00;95639.97;5012590;28;20392;-59
2022/03/10 04:49:03;;;;;;;33.95;14.07;;;;;;;-3.98;100.00;95643.41;5012615;28;20030;-56
2022/03/10 04:51:29;;;;;;;33.45;14.15;;;;;;;-4.06;100.00;95632.91;4995063;28;20528;-58
2022/03/10 04:53:54;;;;;;;28.52;14.27;;;;;;;-4.12;100.00;95645.66;4994928;28;20034;-59
2022/03/10 04:56:29;;;;;;;36.72;15.52;;;;;;;-4.19;100.00;95642.06;4982463;28;20030;-55
2022/03/10 04:59:03;;;;;;;32.08;15.02;;;;;;;-4.13;100.00;95651.03;5016466;28;20026;-59
2022/03/10 05:01:31;;;;;;;30.30;13.63;;;;;;;-4.04;100.00;95651.88;5016166;28;20033;-59
2022/03/10 05:04:00;;;;;;;34.38;14.63;;;;;;;-3.95;100.00;95662.19;5016196;28;20034;-58
2022/03/10 05:06:25;;;;;;;35.63;14.35;;;;;;;-3.93;100.00;95665.47;5014778;28;20029;-57
2022/03/10 05:08:50;;;;;;;28.65;13.65;;;;;;;-3.90;100.00;95665.16;5016106;28;20026;-59
2022/03/10 05:11:25;;;;;;;32.38;14.93;;;;;;;-3.88;100.00;95667.63;5016157;28;20037;-54
2022/03/10 05:13:53;;;;;;;30.35;14.65;;;;;;;-3.86;100.00;95665.66;5015872;28;20061;-59
2022/03/10 05:16:19;;;;;;;34.25;15.48;;;;;;;-3.80;100.00;95672.84;4998859;28;20056;-58
2022/03/10 05:18:47;;;;;;;34.13;15.23;;;;;;;-3.70;100.00;95673.50;5006108;28;20018;-57
2022/03/10 05:21:15;;;;;;;34.25;15.55;;;;;;;-3.60;100.00;95671.56;5012465;28;20121;-57
2022/03/10 05:23:41;;;;;;;34.65;15.25;;;;;;;-3.57;100.00;95670.44;5015783;28;20026;-58
2022/03/10 05:26:31;;;;;;;39.03;16.80;;;;;;;-3.61;100.00;95676.97;5015047;28;20030;-58
2022/03/10 05:28:59;;;;;;;35.42;16.20;;;;;;;-3.63;100.00;95674.50;5015472;28;20101;-56
2022/03/10 05:31:25;;;;;;;36.08;15.20;;;;;;;-3.62;100.00;95675.31;5015894;28;20396;-58
2022/03/10 05:33:50;;;;;;;36.60;16.60;;;;;;;-3.65;100.00;95667.81;5015272;28;20028;-60
2022/03/10 05:36:19;;;;;;;36.17;15.70;;;;;;;-3.65;100.00;95671.25;5014263;28;20061;-58
2022/03/10 05:38:56;;;;;;;35.30;15.50;;;;;;;-3.69;100.00;95676.94;5015640;28;20026;-57
2022/03/10 05:41:31;;;;;;;32.05;15.30;;;;;;;-3.67;100.00;95675.00;5015487;28;20057;-60
2022/03/10 05:44:03;;;;;;;37.03;15.63;;;;;;;-3.65;100.00;95692.19;5015319;28;20025;-58
2022/03/10 05:46:31;;;;;;;39.40;16.65;;;;;;;-3.58;100.00;95680.09;5015660;28;20025;-55
2022/03/10 05:48:56;;;;;;;40.05;17.63;;;;;;;-3.43;100.00;95693.34;4997641;28;20034;-58
2022/03/10 05:51:22;;;;;;;39.75;17.30;;;;;;;-3.35;100.00;95697.78;5014190;28;20022;-58
2022/03/10 05:53:53;;;;;;;38.83;17.02;;;;;;;-3.39;100.00;95699.88;4997894;28;20506;-58
2022/03/10 05:56:18;;;;;;;43.53;18.83;;;;;;;-3.42;100.00;95700.22;5015169;28;20038;-57
2022/03/10 05:58:49;;;;;;;42.65;17.15;;;;;;;-3.47;100.00;95697.28;5014841;28;20026;-58
2022/03/10 06:01:14;;;;;;;38.38;17.85;;;;;;;-3.47;100.00;95707.75;5015178;28;20152;-56
2022/03/10 06:03:40;;;;;;;37.60;16.52;;;;;;;-3.47;100.00;95709.53;5013895;28;20121;-54
2022/03/10 06:06:13;;;;;;;38.03;16.90;;;;;;;-3.45;100.00;95721.50;4997412;28;20382;-58
2022/03/10 06:08:38;;;;;;;45.45;18.33;;;;;;;-3.49;100.00;95712.31;5015064;28;20392;-57
2022/03/10 06:11:04;;;;;;;37.10;16.70;;;;;;;-3.51;100.00;95714.28;4980863;28;20033;-57
2022/03/10 06:13:30;;;;;;;35.85;16.58;;;;;;;-3.56;100.00;95720.00;5014610;28;20050;-58
2022/03/10 06:15:55;;;;;;;36.17;16.63;;;;;;;-3.56;100.00;95725.25;5005446;28;20113;-61
2022/03/10 06:18:20;;;;;;;37.08;16.02;;;;;;;-3.58;100.00;95735.06;4992000;28;20031;-56
2022/03/10 06:20:46;;;;;;;35.88;17.33;;;;;;;-3.61;100.00;95738.00;4984191;28;20085;-58
2022/03/10 06:23:11;;;;;;;35.00;17.15;;;;;;;-3.61;100.00;95742.41;4984138;28;20025;-54
2022/03/10 06:25:37;;;;;;;40.63;17.88;;;;;;;-3.63;100.00;95739.13;5013719;28;20030;-55
2022/03/10 06:28:04;;;;;;;36.03;16.60;;;;;;;-3.66;100.00;95742.91;5003371;28;20018;-58
2022/03/10 06:30:30;;;;;;;37.47;15.93;;;;;;;-3.69;100.00;95748.47;5011185;28;20104;-58
2022/03/10 06:32:55;;;;;;;32.00;16.52;;;;;;;-3.76;100.00;95744.84;5000381;28;20704;-58
2022/03/10 06:35:21;;;;;;;35.53;16.77;;;;;;;-3.83;100.00;95749.06;4994617;28;20042;-58
2022/03/10 06:37:46;;;;;;;37.20;16.13;;;;;;;-3.84;100.00;95757.91;4983616;28;20049;-59
2022/03/10 06:40:12;;;;;;;29.75;14.95;;;;;;;-3.86;100.00;95760.69;4975508;28;20470;-59
2022/03/10 06:42:37;;;;;;;32.60;15.38;;;;;;;-3.82;100.00;95756.75;5003948;28;20026;-60
2022/03/10 06:45:03;;;;;;;37.30;17.23;;;;;;;-3.70;100.00;95759.91;4981187;28;20042;-56
2022/03/10 06:47:34;;;;;;;39.03;17.30;;;;;;;-3.57;100.00;95762.91;5011971;28;20036;-58
2022/03/10 06:49:59;;;;;;;39.45;17.35;;;;;;;-3.45;100.00;95767.81;4999455;28;20381;-58
2022/03/10 06:52:31;;;;;;;35.25;15.93;;;;;;;-3.33;100.00;95767.34;5013392;28;20109;-59
2022/03/10 06:55:00;;;;;;;39.03;17.47;;;;;;;-3.21;100.00;95771.28;4984999;28;20026;-58
2022/03/10 06:57:30;;;;;;;35.33;17.08;;;;;;;-3.03;100.00;95770.31;5001823;28;20688;-57
2022/03/10 06:59:56;;;;;;;35.25;15.82;;;;;;;-2.84;100.00;95777.81;4998646;28;20029;-59
2022/03/10 07:02:21;;;;;;;37.30;16.63;;;;;;;-2.70;100.00;95786.84;4980584;28;20435;-58
2022/03/10 07:04:50;;;;;;;33.60;15.60;;;;;;;-2.50;100.00;95787.28;4998289;28;20471;-59
2022/03/10 07:07:15;;;;;;;39.65;16.73;;;;;;;-2.24;100.00;95787.88;4993868;28;20030;-59
2022/03/10 07:09:41;;;;;;;36.33;16.55;;;;;;;-2.03;100.00;95792.59;4982478;28;20367;-57
2022/03/10 07:12:08;;;;;;;37.58;17.65;;;;;;;-1.78;100.00;95799.38;4998463;28;20374;-56
2022/03/10 07:14:34;;;;;;;42.58;18.15;;;;;;;-1.45;100.00;95801.84;5004012;28;20088;-60
2022/03/10 07:16:59;;;;;;;37.97;17.88;;;;;;;-1.08;100.00;95805.56;4971684;28;20078;-59
2022/03/10 07:19:25;;;;;;;41.50;16.98;;;;;;;-0.62;100.00;95808.97;5002825;28;20045;-59
2022/03/10 07:21:50;;;;;;;38.40;17.23;;;;;;;-0.34;100.00;95801.31;4985132;28;20068;-59
2022/03/10 07:24:22;;;;;;;34.10;15.73;;;;;;;0.01;100.00;95791.09;5012753;28;20034;-59
2022/03/10 07:26:47;;;;;;;35.47;16.20;;;;;;;0.29;100.00;95789.41;4994949;28;20204;-59
2022/03/10 07:29:19;;;;;;;35.33;16.67;;;;;;;0.50;100.00;95775.50;4965787;28;20033;-59
2022/03/10 07:31:44;;;;;;;38.03;16.63;;;;;;;0.74;100.00;95763.78;5012799;28;20021;-58
2022/03/10 07:34:09;;;;;;;33.55;15.52;;;;;;;0.95;100.00;95755.06;5012458;28;20400;-60
2022/03/10 07:36:35;;;;;;;38.40;16.67;;;;;;;1.10;100.00;95740.81;4989503;28;20025;-62
2022/03/10 07:39:00;;;;;;;35.35;15.95;;;;;;;1.36;100.00;95740.22;5012533;28;20026;-61
2022/03/10 07:41:26;;;;;;;34.17;16.15;;;;;;;1.55;100.00;95722.06;5012703;28;20029;-62
2022/03/10 07:43:54;;;;;;;37.75;15.50;;;;;;;1.87;100.00;95700.31;5012470;28;20041;-61
2022/03/10 07:46:28;;;;;;;33.05;14.95;;;;;;;2.33;100.00;95681.19;5012371;28;20030;-61
2022/03/10 07:48:53;;;;;;;29.45;14.25;;;;;;;2.85;100.00;95645.28;5012261;28;20037;-61
2022/03/10 07:51:20;;;;;;;34.95;15.60;;;;;;;3.30;100.00;95613.72;5012345;28;20025;-62
2022/03/10 07:53:51;;;;;;;33.17;15.18;;;;;;;3.72;100.00;95576.09;5012066;28;20396;-62
2022/03/10 07:56:17;;;;;;;33.55;14.52;;;;;;;4.03;100.00;95530.28;5012416;28;20432;-60
2022/03/10 07:58:51;;;;;;;32.85;15.50;;;;;;;4.26;100.00;95497.13;4994372;28;20029;-62
2022/03/10 08:01:19;;;;;;;34.22;15.27;;;;;;;4.45;100.00;95479.41;5012202;28;20022;-63
2022/03/10 08:04:08;;;;;;;31.92;14.70;;;;;;;4.65;100.00;95466.78;4999200;28;20061;-63
2022/03/10 08:06:34;;;;;;;29.83;14.18;;;;;;;4.86;100.00;95481.50;5011828;28;20026;-64
2022/03/10 08:09:06;;;;;;;25.75;14.25;;;;;;;5.04;100.00;95510.72;5012432;28;20036;-65
2022/03/10 08:11:33;;;;;;;28.95;14.52;;;;;;;5.31;100.00;95552.94;5012040;28;20057;-65
2022/03/10 08:13:59;;;;;;;29.58;14.80;;;;;;;5.51;100.00;95590.72;5011966;28;20041;-65
2022/03/10 08:16:27;;;;;;;36.15;15.63;;;;;;;5.72;100.00;95645.28;5012054;28;20556;-66
2022/03/10 08:18:52;;;;;;;30.83;14.60;;;;;;;5.90;100.00;95693.19;5012049;28;20022;-66
2022/03/10 08:21:23;;;;;;;29.15;15.63;;;;;;;6.07;100.00;95742.09;5011757;28;20026;-66
2022/03/10 08:23:52;;;;;;;28.33;14.70;;;;;;;6.23;100.00;95782.47;5010654;28;20030;-66
2022/03/10 08:26:23;;;;;;;29.95;14.75;;;;;;;6.41;100.00;95816.28;5011780;28;20042;-66
2022/03/10 08:28:57;;;;;;;29.45;14.90;;;;;;;6.62;100.00;95851.25;5006710;28;20393;-66
2022/03/10 08:31:23;;;;;;;32.08;14.48;;;;;;;6.54;100.00;95877.34;4989977;28;20033;-65
2022/03/10 08:33:54;;;;;;;29.65;14.98;;;;;;;6.71;100.00;95875.72;5011744;28;20404;-66
2022/03/10 08:36:22;;;;;;;30.70;15.63;;;;;;;6.80;100.00;95893.03;4969123;28;20108;-66
2022/03/10 08:38:48;;;;;;;28.13;14.45;;;;;;;7.03;100.00;95902.19;5012084;28;20025;-65
2022/03/10 08:41:23;;;;;;;29.30;15.60;;;;;;;7.23;100.00;95927.59;5011641;28;20503;-65
2022/03/10 08:43:57;;;;;;;28.20;15.57;;;;;;;7.40;100.00;95940.31;5011789;28;20088;-65
2022/03/10 08:46:29;;;;;;;29.10;15.32;;;;;;;7.58;100.00;95958.94;5010038;28;20025;-65
2022/03/10 08:48:54;;;;;;;28.35;14.82;;;;;;;7.75;100.00;95977.81;5010389;28;20034;-65
2022/03/10 08:51:19;;;;;;;26.85;14.85;;;;;;;7.87;100.00;95997.34;5011605;28;20088;-65
2022/03/10 08:53:50;;;;;;;26.23;13.95;;;;;;;8.13;100.00;96006.81;5011202;28;20108;-65
2022/03/10 08:56:16;;;;;;;28.98;14.75;;;;;;;8.29;100.00;96021.41;5011263;28;20477;-65
2022/03/10 08:58:41;;;;;;;29.10;14.70;;;;;;;8.16;100.00;96037.59;5010597;28;20029;-65
2022/03/10 09:01:06;;;;;;;30.08;15.45;;;;;;;8.39;100.00;96040.38;5010838;28;20026;-65
2022/03/10 09:03:32;;;;;;;25.17;14.18;;;;;;;8.47;100.00;96052.59;5011444;28;20026;-65
2022/03/10 09:05:57;;;;;;;28.05;15.70;;;;;;;8.38;100.00;96068.94;5011599;28;20527;-65
2022/03/10 09:08:23;;;;;;;33.65;15.90;;;;;;;8.44;100.00;96067.19;5011200;28;20753;-65
2022/03/10 09:10:55;;;;;;;29.42;15.20;;;;;;;8.67;100.00;96072.59;4994085;28;20484;-65
2022/03/10 09:13:21;;;;;;;29.08;14.57;;;;;;;8.87;100.00;96080.31;5011106;28;20053;-65
2022/03/10 09:16:00;;;;;;;31.00;15.52;;;;;;;8.85;100.00;96094.97;5011456;28;20440;-65
2022/03/10 09:18:25;;;;;;;29.60;15.88;;;;;;;8.77;100.00;96097.94;4978271;28;20420;-65
2022/03/10 09:21:06;;;;;;;30.75;16.45;;;;;;;8.85;100.00;96101.13;5011179;28;20025;-65
2022/03/10 09:23:33;;;;;;;32.58;17.75;;;;;;;9.17;100.00;96101.63;4995844;28;20033;-65
2022/03/10 09:25:59;;;;;;;29.73;15.77;;;;;;;9.16;99.94;96101.88;4998184;28;20019;-65
2022/03/10 09:28:24;;;;;;;29.30;15.73;;;;;;;9.45;98.14;96121.56;4989429;28;20030;-65
2022/03/10 09:30:52;;;;;;;30.02;15.90;;;;;;;9.35;97.53;96126.66;4982511;28;20018;-65
2022/03/10 09:33:17;;;;;;;32.38;17.13;;;;;;;9.19;96.75;96123.59;4998177;28;20661;-66
2022/03/10 09:35:43;;;;;;;30.17;16.80;;;;;;;9.13;97.77;96135.22;4990429;28;20130;-65
2022/03/10 09:38:11;;;;;;;31.58;17.73;;;;;;;8.93;96.69;96140.06;4992275;28;20034;-66
2022/03/10 09:40:39;;;;;;;29.48;16.73;;;;;;;8.97;98.47;96141.22;4999609;28;20034;-66
2022/03/10 09:43:06;;;;;;;29.25;16.38;;;;;;;9.10;99.77;96137.53;4988630;28;20038;-65
2022/03/10 09:45:36;;;;;;;29.70;16.52;;;;;;;9.32;97.96;96135.13;5014625;28;20030;-66
2022/03/10 09:48:01;;;;;;;33.30;16.92;;;;;;;9.43;97.53;96135.13;4997071;28;20542;-66
2022/03/10 09:50:44;;;;;;;33.47;16.75;;;;;;;9.66;97.37;96144.19;5014801;28;20037;-66
2022/03/10 09:53:13;;;;;;;29.73;17.23;;;;;;;9.65;95.72;96134.56;5007842;28;20018;-66
2022/03/10 09:56:05;;;;;;;31.85;17.30;;;;;;;9.86;96.63;96131.28;5012965;28;20056;-66
2022/03/10 09:58:38;;;;;;;32.63;16.90;;;;;;;10.16;94.95;96128.44;5014191;28;20022;-68
2022/03/10 10:01:07;;;;;;;30.70;16.77;;;;;;;10.33;91.62;96136.59;5014345;28;20030;-67
2022/03/10 10:03:35;;;;;;;30.98;17.65;;;;;;;10.61;90.62;96133.91;4992222;28;20036;-68
2022/03/10 10:06:02;;;;;;;29.05;17.20;;;;;;;10.87;90.76;96137.91;4996629;28;20018;-68
2022/03/10 10:08:41;;;;;;;33.30;18.00;;;;;;;11.16;88.28;96141.34;5007619;28;20429;-67
2022/03/10 10:11:07;;;;;;;29.83;17.33;;;;;;;11.31;86.12;96138.94;4995919;28;20018;-68
2022/03/10 10:13:35;;;;;;;33.28;16.80;;;;;;;11.06;84.52;96138.50;4992773;28;20065;-68
2022/03/10 10:16:06;;;;;;;29.60;16.45;;;;;;;10.75;85.32;96137.16;4985292;28;20018;-67
2022/03/10 10:18:38;;;;;;;29.27;16.70;;;;;;;11.20;86.83;96133.66;4995553;28;20067;-68
2022/03/10 10:21:06;;;;;;;30.85;16.88;;;;;;;11.14;87.00;96124.69;4987823;28;20521;-67
2022/03/10 10:23:36;;;;;;;27.15;14.93;;;;;;;11.51;85.61;96127.72;4983394;28;20445;-68
2022/03/10 10:26:09;;;;;;;29.08;16.83;;;;;;;11.90;83.07;96125.06;4993969;28;20397;-67
2022/03/10 10:28:37;;;;;;;31.02;17.00;;;;;;;11.87;80.17;96131.75;4982263;28;20022;-67
2022/03/10 10:31:04;;;;;;;33.58;16.67;;;;;;;12.07;78.45;96125.06;4999594;28;20028;-68
2022/03/10 10:33:32;;;;;;;28.92;16.23;;;;;;;12.36;78.96;96131.03;5010755;28;20500;-68
2022/03/10 10:36:30;;;;;;;27.60;15.55;;;;;;;12.46;75.65;96115.84;5004633;28;20084;-68
2022/03/10 10:39:05;;;;;;;30.67;16.23;;;;;;;12.51;75.20;96119.69;5002147;28;20022;-68
2022/03/10 10:41:31;;;;;;;32.03;18.13;;;;;;;12.02;74.61;96120.41;5013521;28;20037;-68
2022/03/10 10:43:59;;;;;;;29.98;16.90;;;;;;;12.38;76.54;96112.81;4996345;28;20381;-68
2022/03/10 10:46:34;;;;;;;31.25;17.15;;;;;;;12.61;75.82;96106.34;5013071;28;20108;-68
2022/03/10 10:49:07;;;;;;;30.75;17.70;;;;;;;12.86;73.38;96112.00;5013732;28;20477;-68
2022/03/10 10:51:46;;;;;;;35.55;16.55;;;;;;;12.68;71.95;96102.38;5013384;28;20092;-68
2022/03/10 10:54:20;;;;;;;29.42;17.30;;;;;;;12.57;72.78;96097.16;5013316;28;20026;-68
2022/03/10 10:56:50;;;;;;;29.65;17.10;;;;;;;12.76;73.18;96093.06;5012981;28;20125;-68
2022/03/10 10:59:47;;;;;;;30.30;17.83;;;;;;;13.15;73.69;96090.22;5013275;28;20026;-68
2022/03/10 11:02:18;;;;;;;33.15;17.00;;;;;;;13.17;72.63;96090.75;4979896;28;20042;-68
2022/03/10 11:04:51;;;;;;;30.42;17.05;;;;;;;13.31;72.49;96079.31;5013163;28;20087;-68
2022/03/10 11:07:17;;;;;;;27.95;16.35;;;;;;;13.14;67.19;96084.03;5012848;28;20022;-68
2022/03/10 11:09:52;;;;;;;31.13;17.05;;;;;;;13.08;67.61;96082.34;5013148;28;20030;-68
2022/03/10 11:12:20;;;;;;;28.08;15.35;;;;;;;13.05;65.56;96080.16;5012701;28;20017;-69
2022/03/10 11:14:51;;;;;;;25.42;15.55;;;;;;;12.86;68.00;96078.91;5013109;28;20026;-68
2022/03/10 11:17:20;;;;;;;26.17;15.15;;;;;;;12.63;67.09;96066.59;5002901;28;20034;-69
2022/03/10 11:19:50;;;;;;;29.05;15.88;;;;;;;13.14;68.82;96065.19;4996296;28;20072;-69